Time;durP1;ratioP1;P1;durP2;ratioP2;P2;SDS_P1;SDS_P2;PMS_P1;PMS_P2;Temp;Humidity;BMP_temperature;BMP_pressure;BME280_temperature;BME280_humidity;BME280_pressure;Samples;Min_cycle;Max_cycle;Signal;HPM_P1;HPM_P2
2021/12/24 00:00:13;;;;;;;25.00;12.43;;;;;;;;;;5033517;28;20246;-82
2021/12/24 00:02:41;;;;;;;17.60;11.20;;;;;;;;;;5033489;28;20531;-82
2021/12/24 00:05:10;;;;;;;20.73;12.73;;;;;;;;;;5032779;28;20237;-82
2021/12/24 00:07:37;;;;;;;13.83;9.83;;;;;;;;;;5033556;28;20213;-82
2021/12/24 00:10:05;;;;;;;21.57;13.67;;;;;;;;;;5033055;28;20233;-82
2021/12/24 00:12:35;;;;;;;19.50;12.77;;;;;;;;;;5033804;28;20211;-82
2021/12/24 00:15:10;;;;;;;11.53;8.87;;;;;;;;;;5033178;28;20731;-82
2021/12/24 00:17:38;;;;;;;18.03;11.27;;;;;;;;;;5033774;28;20784;-82
2021/12/24 00:20:25;;;;;;;15.90;9.97;;;;;;;;;;5032490;28;20285;-82
2021/12/24 00:23:24;;;;;;;15.93;10.33;;;;;;;;;;5033708;28;20301;-82
2021/12/24 00:36:54;;;;;;;17.57;10.60;;;;;;;;;;5032631;28;20248;-82
2021/12/24 00:39:23;;;;;;;21.23;12.80;;;;;;;;;;5032127;28;20241;-82
2021/12/24 00:41:50;;;;;;;16.30;9.73;;;;;;;;;;5032857;28;20214;-82
2021/12/24 00:44:17;;;;;;;17.37;11.57;;;;;;;;;;5032369;28;20239;-82
2021/12/24 00:46:44;;;;;;;17.70;10.90;;;;;;;;;;5032684;28;20314;-82
2021/12/24 00:49:11;;;;;;;19.83;12.03;;;;;;;;;;5032250;28;20241;-82
2021/12/24 00:51:55;;;;;;;8.03;7.00;;;;;;;;;;5033252;28;20558;-82
2021/12/24 00:57:09;;;;;;;14.50;8.87;;;;;;;;;;5032246;28;20605;-82
2021/12/24 00:59:36;;;;;;;21.73;11.90;;;;;;;;;;5033141;28;20238;-82
2021/12/24 01:02:04;;;;;;;12.83;9.07;;;;;;;;;;5035260;28;20214;-82
2021/12/24 01:04:31;;;;;;;20.47;10.20;;;;;;;;;;5031807;28;20300;-82
2021/12/24 01:06:58;;;;;;;12.67;7.97;;;;;;;;;;5032225;28;20214;-82
2021/12/24 01:09:27;;;;;;;16.10;9.37;;;;;;;;;;5031783;28;20247;-81
2021/12/24 01:11:54;;;;;;;14.43;9.27;;;;;;;;;;5032226;28;20206;-82
2021/12/24 01:14:22;;;;;;;17.70;11.60;;;;;;;;;;5030925;28;20314;-82
2021/12/24 01:16:59;;;;;;;19.70;12.00;;;;;;;;;;5031318;28;20203;-81
2021/12/24 01:19:26;;;;;;;18.77;11.40;;;;;;;;;;5031064;28;20281;-82
2021/12/24 01:22:22;;;;;;;18.53;12.50;;;;;;;;;;5031985;28;20201;-82
2021/12/24 01:24:58;;;;;;;13.47;7.00;;;;;;;;;;5030799;28;20230;-82
2021/12/24 01:27:42;;;;;;;11.87;8.93;;;;;;;;;;5032080;28;20191;-82
2021/12/24 01:37:51;;;;;;;12.90;9.33;;;;;;;;;;5031088;28;20620;-82
2021/12/24 01:38:35;;;;;;;11.60;7.03;;;;;;;;;;5030957;28;20245;-82
2021/12/24 01:41:08;;;;;;;14.87;11.03;;;;;;;;;;5031705;28;20237;-82
2021/12/24 01:43:34;;;;;;;13.03;9.77;;;;;;;;;;5030307;28;20277;-82
2021/12/24 01:46:01;;;;;;;14.10;9.13;;;;;;;;;;5032019;28;20682;-82
2021/12/24 01:48:28;;;;;;;11.60;7.70;;;;;;;;;;5035436;28;20241;-82
2021/12/24 01:50:56;;;;;;;9.30;6.27;;;;;;;;;;5036224;28;20231;-82
2021/12/24 01:53:24;;;;;;;19.90;10.57;;;;;;;;;;5035032;28;20218;-82
2021/12/24 01:55:52;;;;;;;10.30;8.27;;;;;;;;;;5036237;28;20207;-82
2021/12/24 01:58:21;;;;;;;16.93;11.27;;;;;;;;;;5032339;28;20210;-82
2021/12/24 02:00:50;;;;;;;12.13;9.17;;;;;;;;;;5036117;28;20640;-82
2021/12/24 02:03:17;;;;;;;19.87;12.40;;;;;;;;;;5015419;28;20215;-82
2021/12/24 02:05:45;;;;;;;10.03;6.90;;;;;;;;;;5021131;28;20231;-82
2021/12/24 02:08:12;;;;;;;9.17;6.43;;;;;;;;;;5026611;28;20210;-82
2021/12/24 02:10:39;;;;;;;12.07;9.83;;;;;;;;;;5035281;28;20230;-82
2021/12/24 02:13:07;;;;;;;17.43;10.07;;;;;;;;;;5035594;28;20276;-82
2021/12/24 02:15:45;;;;;;;9.27;8.23;;;;;;;;;;5035155;28;20230;-83
2021/12/24 02:28:14;;;;;;;9.50;6.87;;;;;;;;;;5035090;28;20215;-82
2021/12/24 02:29:35;;;;;;;7.97;6.37;;;;;;;;;;5034810;28;20252;-80
2021/12/24 02:32:02;;;;;;;9.93;8.03;;;;;;;;;;5035326;28;20214;-80
2021/12/24 02:34:29;;;;;;;10.17;7.10;;;;;;;;;;5034923;28;20241;-81
2021/12/24 02:36:58;;;;;;;13.33;9.03;;;;;;;;;;5034969;28;20206;-79
2021/12/24 02:39:25;;;;;;;16.33;9.53;;;;;;;;;;5034028;28;20246;-79
2021/12/24 02:41:52;;;;;;;8.50;5.93;;;;;;;;;;5034802;28;20211;-81
2021/12/24 02:44:19;;;;;;;14.73;9.83;;;;;;;;;;5034124;28;20245;-79
2021/12/24 02:47:08;;;;;;;11.80;6.97;;;;;;;;;;5034852;28;20360;-79
2021/12/24 02:55:07;;;;;;;10.80;6.40;;;;;;;;;;5033836;28;20612;-79
2021/12/24 02:57:35;;;;;;;13.90;8.90;;;;;;;;;;5034676;28;20675;-80
2021/12/24 03:00:12;;;;;;;4.80;4.33;;;;;;;;;;5033143;28;20288;-80
2021/12/24 03:02:39;;;;;;;16.20;9.60;;;;;;;;;;5034605;28;20249;-79
2021/12/24 03:05:07;;;;;;;6.73;5.43;;;;;;;;;;5032827;28;20244;-81
2021/12/24 03:07:36;;;;;;;7.73;6.47;;;;;;;;;;5034318;28;20215;-79
2021/12/24 03:10:03;;;;;;;12.03;8.97;;;;;;;;;;5033686;28;20293;-81
2021/12/24 03:12:30;;;;;;;13.10;9.20;;;;;;;;;;5034069;28;20214;-79
2021/12/24 03:14:58;;;;;;;13.27;8.17;;;;;;;;;;5033432;28;20250;-79
2021/12/24 03:17:26;;;;;;;16.23;9.17;;;;;;;;;;5034306;28;20214;-79
2021/12/24 03:19:56;;;;;;;6.90;5.60;;;;;;;;;;5013552;28;20235;-80
2021/12/24 03:22:37;;;;;;;12.87;8.67;;;;;;;;;;5014362;28;20188;-79
2021/12/24 03:25:06;;;;;;;5.97;5.17;;;;;;;;;;5013539;28;20235;-79
2021/12/24 03:27:33;;;;;;;10.83;8.63;;;;;;;;;;5014243;28;20215;-80
2021/12/24 03:30:00;;;;;;;12.50;9.03;;;;;;;;;;5013664;28;20329;-79
2021/12/24 03:32:28;;;;;;;15.07;8.70;;;;;;;;;;5013885;28;20274;-79
2021/12/24 03:34:55;;;;;;;7.07;6.37;;;;;;;;;;5025238;28;20861;-79
2021/12/24 03:37:22;;;;;;;7.97;6.33;;;;;;;;;;5033959;28;20211;-79
2021/12/24 03:39:49;;;;;;;8.87;7.67;;;;;;;;;;5033486;28;20808;-79
2021/12/24 03:42:18;;;;;;;11.37;8.17;;;;;;;;;;5033558;28;20213;-79
2021/12/24 03:44:52;;;;;;;12.47;8.67;;;;;;;;;;5033036;28;20234;-79
2021/12/24 03:47:21;;;;;;;8.47;4.70;;;;;;;;;;5033747;28;20202;-79
2021/12/24 03:49:56;;;;;;;16.37;8.30;;;;;;;;;;5033240;28;20246;-80
2021/12/24 03:52:39;;;;;;;11.70;7.50;;;;;;;;;;5033619;28;20276;-79
2021/12/24 03:55:06;;;;;;;13.50;8.07;;;;;;;;;;5032617;28;20296;-80
2021/12/24 03:57:35;;;;;;;11.70;9.10;;;;;;;;;;5033617;28;20209;-80
2021/12/24 04:00:06;;;;;;;11.57;8.33;;;;;;;;;;5032752;28;20246;-81
2021/12/24 04:02:33;;;;;;;8.53;6.83;;;;;;;;;;5033176;28;20206;-79
2021/12/24 04:05:00;;;;;;;11.03;7.30;;;;;;;;;;5032626;28;20238;-79
2021/12/24 04:07:27;;;;;;;12.47;8.90;;;;;;;;;;5032439;28;20580;-79
2021/12/24 04:10:01;;;;;;;14.30;9.50;;;;;;;;;;5032531;28;20529;-79
2021/12/24 04:12:28;;;;;;;6.70;4.70;;;;;;;;;;5032896;28;20238;-79
2021/12/24 04:14:57;;;;;;;12.93;9.00;;;;;;;;;;5032583;28;20237;-79
2021/12/24 04:17:24;;;;;;;13.53;9.17;;;;;;;;;;5033307;28;20210;-79
2021/12/24 04:25:21;;;;;;;10.27;8.13;;;;;;;;;;5031969;28;20253;-79
2021/12/24 04:27:49;;;;;;;10.70;8.70;;;;;;;;;;5032849;28;20213;-80
2021/12/24 04:30:22;;;;;;;10.43;8.03;;;;;;;;;;5031918;28;20231;-79
2021/12/24 04:32:59;;;;;;;9.03;5.23;;;;;;;;;;5032470;28;20206;-80
2021/12/24 04:35:40;;;;;;;14.97;10.10;;;;;;;;;;5031955;28;20234;-79
2021/12/24 04:51:58;;;;;;;14.20;9.30;;;;;;;;;;5032577;28;20300;-81
2021/12/24 05:02:51;;;;;;;18.27;11.37;;;;;;;;;;5012467;28;20186;-79
2021/12/24 05:05:22;;;;;;;16.20;11.40;;;;;;;;;;5012144;28;20710;-79
2021/12/24 05:10:44;;;;;;;19.53;11.30;;;;;;;;;;4976583;28;20238;-79
2021/12/24 05:13:12;;;;;;;16.27;10.83;;;;;;;;;;5028144;28;20591;-79
2021/12/24 05:15:41;;;;;;;12.27;7.47;;;;;;;;;;5032295;28;20207;-79
2021/12/24 05:18:27;;;;;;;15.60;10.50;;;;;;;;;;5031575;28;20211;-79
2021/12/24 05:23:39;;;;;;;16.80;10.63;;;;;;;;;;5031279;28;20258;-79
2021/12/24 05:26:06;;;;;;;16.63;9.97;;;;;;;;;;5031960;28;20226;-79
2021/12/24 05:28:33;;;;;;;16.27;10.47;;;;;;;;;;5032693;28;20308;-79
2021/12/24 05:31:00;;;;;;;19.20;11.97;;;;;;;;;;5032634;28;20234;-80
2021/12/24 05:33:29;;;;;;;14.10;9.53;;;;;;;;;;5034410;28;20614;-79
2021/12/24 05:35:56;;;;;;;18.63;11.60;;;;;;;;;;5033644;28;20281;-79
2021/12/24 05:38:23;;;;;;;18.87;12.77;;;;;;;;;;5032131;28;20211;-81
2021/12/24 05:40:50;;;;;;;19.87;12.47;;;;;;;;;;5032631;28;20238;-79
2021/12/24 05:43:18;;;;;;;23.27;12.83;;;;;;;;;;5031896;28;20570;-81
2021/12/24 05:45:45;;;;;;;18.97;12.53;;;;;;;;;;5032056;28;20338;-80
2021/12/24 05:48:12;;;;;;;20.27;13.47;;;;;;;;;;5031687;28;20217;-79
2021/12/24 05:50:41;;;;;;;22.43;12.97;;;;;;;;;;5032784;28;20227;-82
2021/12/24 05:53:08;;;;;;;17.57;11.63;;;;;;;;;;5031710;28;20206;-80
2021/12/24 05:55:35;;;;;;;9.87;6.87;;;;;;;;;;5032060;28;20265;-79
2021/12/24 05:58:06;;;;;;;22.90;11.80;;;;;;;;;;5031901;28;20618;-79
2021/12/24 06:00:33;;;;;;;21.93;14.17;;;;;;;;;;5031711;28;20262;-79
2021/12/24 06:03:00;;;;;;;17.93;12.50;;;;;;;;;;5032029;28;20230;-79
2021/12/24 06:05:27;;;;;;;20.27;14.10;;;;;;;;;;5030848;28;20238;-79
2021/12/24 06:07:55;;;;;;;25.17;13.60;;;;;;;;;;5031274;28;20207;-79
2021/12/24 06:10:22;;;;;;;22.20;12.53;;;;;;;;;;5031026;28;20239;-79
2021/12/24 06:12:49;;;;;;;19.90;11.47;;;;;;;;;;5031687;28;20598;-78
2021/12/24 06:15:20;;;;;;;29.50;16.70;;;;;;;;;;5030657;28;20234;-79
2021/12/24 06:17:47;;;;;;;21.00;14.53;;;;;;;;;;5031903;28;20258;-78
2021/12/24 06:20:15;;;;;;;18.93;10.97;;;;;;;;;;5030263;28;20242;-78
2021/12/24 06:22:42;;;;;;;15.07;8.90;;;;;;;;;;5031463;28;20621;-78
2021/12/24 06:25:10;;;;;;;18.67;11.87;;;;;;;;;;5030516;28;20234;-78
2021/12/24 06:27:38;;;;;;;22.30;15.13;;;;;;;;;;5032482;28;20231;-79
2021/12/24 06:30:06;;;;;;;21.70;14.33;;;;;;;;;;5031969;28;20241;-79
2021/12/24 06:32:33;;;;;;;22.13;14.73;;;;;;;;;;5032916;28;20210;-79
2021/12/24 06:35:00;;;;;;;23.47;14.57;;;;;;;;;;5034641;28;20234;-78
2021/12/24 06:37:28;;;;;;;19.63;12.50;;;;;;;;;;5035906;28;20570;-79
2021/12/24 06:39:55;;;;;;;21.87;13.17;;;;;;;;;;5036926;28;20234;-81
2021/12/24 06:42:24;;;;;;;23.97;14.30;;;;;;;;;;5036044;28;20234;-78
2021/12/24 06:44:51;;;;;;;25.47;14.67;;;;;;;;;;5038582;28;20874;-79
2021/12/24 06:47:18;;;;;;;23.00;15.07;;;;;;;;;;5040338;28;20199;-81
2021/12/24 06:49:45;;;;;;;21.93;14.17;;;;;;;;;;5038416;28;20238;-80
2021/12/24 06:52:12;;;;;;;23.90;13.40;;;;;;;;;;5035782;28;20202;-81
2021/12/24 06:54:39;;;;;;;23.47;15.93;;;;;;;;;;5041845;28;20247;-82
2021/12/24 06:57:12;;;;;;;22.10;15.60;;;;;;;;;;5043689;28;20203;-80
2021/12/24 06:59:40;;;;;;;20.07;12.93;;;;;;;;;;5037565;28;20739;-79
2021/12/24 07:02:08;;;;;;;24.37;13.63;;;;;;;;;;5040730;28;20191;-81
2021/12/24 07:04:35;;;;;;;26.27;15.53;;;;;;;;;;5041422;28;20258;-80
2021/12/24 07:07:02;;;;;;;22.60;13.17;;;;;;;;;;5041464;28;20238;-80
2021/12/24 07:09:29;;;;;;;21.53;14.63;;;;;;;;;;5033758;28;20736;-79
2021/12/24 07:11:56;;;;;;;23.83;14.33;;;;;;;;;;5023876;28;20207;-81
2021/12/24 07:14:24;;;;;;;20.97;13.83;;;;;;;;;;5026774;28;20227;-80
2021/12/24 07:16:52;;;;;;;23.70;14.20;;;;;;;;;;5033201;28;20195;-80
2021/12/24 07:19:19;;;;;;;21.83;14.03;;;;;;;;;;5017225;28;20240;-80
2021/12/24 07:21:46;;;;;;;24.03;14.07;;;;;;;;;;5017827;28;20226;-82
2021/12/24 07:24:13;;;;;;;21.73;12.47;;;;;;;;;;5018981;28;20235;-80
2021/12/24 07:26:40;;;;;;;14.40;8.30;;;;;;;;;;5021454;28;20231;-81
2021/12/24 07:29:07;;;;;;;20.53;14.13;;;;;;;;;;5039565;28;20239;-81
2021/12/24 07:31:34;;;;;;;23.67;14.43;;;;;;;;;;5033419;28;20230;-81
2021/12/24 07:34:03;;;;;;;19.67;13.80;;;;;;;;;;5025064;28;20608;-80
2021/12/24 07:36:30;;;;;;;25.27;14.77;;;;;;;;;;5027796;28;20199;-78
2021/12/24 07:38:57;;;;;;;22.53;14.00;;;;;;;;;;5032959;28;20239;-79
2021/12/24 07:41:25;;;;;;;23.07;14.30;;;;;;;;;;5035812;28;20219;-80
2021/12/24 07:43:52;;;;;;;23.80;14.43;;;;;;;;;;5033834;28;20245;-82
2021/12/24 07:46:20;;;;;;;24.43;14.67;;;;;;;;;;5034420;28;20229;-78
2021/12/24 07:48:49;;;;;;;20.93;14.77;;;;;;;;;;5034019;28;20679;-79
2021/12/24 07:54:03;;;;;;;24.67;15.03;;;;;;;;;;5035189;28;20312;-79
2021/12/24 07:56:30;;;;;;;23.67;14.30;;;;;;;;;;5035770;28;20207;-79
2021/12/24 07:58:58;;;;;;;23.70;13.73;;;;;;;;;;5037031;28;20238;-79
2021/12/24 08:01:26;;;;;;;23.27;13.87;;;;;;;;;;5036075;28;20227;-82
2021/12/24 08:03:53;;;;;;;21.73;14.47;;;;;;;;;;5035628;28;20234;-82
2021/12/24 08:06:22;;;;;;;21.10;13.57;;;;;;;;;;5034559;28;20219;-80
2021/12/24 08:08:49;;;;;;;23.33;14.00;;;;;;;;;;5033888;28;20281;-79
2021/12/24 08:11:16;;;;;;;25.60;13.97;;;;;;;;;;5034281;28;20595;-80
2021/12/24 08:13:43;;;;;;;26.00;15.03;;;;;;;;;;5034256;28;20598;-79
2021/12/24 08:16:10;;;;;;;23.60;14.50;;;;;;;;;;5027527;28;20196;-80
2021/12/24 08:18:37;;;;;;;20.77;13.00;;;;;;;;;;5019513;28;20243;-80
2021/12/24 08:21:04;;;;;;;27.40;15.90;;;;;;;;;;5047647;23;20219;-78
2021/12/24 08:23:33;;;;;;;22.70;14.03;;;;;;;;;;5052354;28;20242;-78
2021/12/24 08:26:01;;;;;;;29.47;15.73;;;;;;;;;;5056323;28;20725;-78
2021/12/24 08:28:28;;;;;;;31.00;15.73;;;;;;;;;;5049975;28;20237;-79
2021/12/24 08:30:56;;;;;;;28.63;17.23;;;;;;;;;;5052636;28;20561;-77
2021/12/24 08:33:23;;;;;;;27.20;15.63;;;;;;;;;;5051837;28;20202;-77
2021/12/24 08:35:50;;;;;;;22.23;14.23;;;;;;;;;;5052443;28;20202;-77
2021/12/24 08:38:19;;;;;;;22.63;13.80;;;;;;;;;;5051849;28;20201;-78
2021/12/24 08:40:48;;;;;;;26.00;14.40;;;;;;;;;;5052554;28;20205;-78
2021/12/24 08:43:15;;;;;;;17.73;12.43;;;;;;;;;;5052374;28;20205;-78
2021/12/24 08:45:48;;;;;;;20.33;11.97;;;;;;;;;;5052357;28;20210;-78
2021/12/24 08:48:15;;;;;;;6.70;5.30;;;;;;;;;;5052003;28;20233;-77
2021/12/24 08:50:42;;;;;;;15.13;10.50;;;;;;;;;;5052301;28;20186;-77
2021/12/24 08:53:10;;;;;;;21.73;12.70;;;;;;;;;;5051088;28;20222;-78
2021/12/24 08:55:37;;;;;;;16.47;9.93;;;;;;;;;;5051849;28;20201;-79
2021/12/24 08:58:06;;;;;;;18.77;12.57;;;;;;;;;;5051236;28;20198;-78
2021/12/24 09:00:33;;;;;;;18.17;10.40;;;;;;;;;;5051937;28;20212;-78
2021/12/24 09:03:01;;;;;;;23.37;13.57;;;;;;;;;;5051560;28;20728;-78
2021/12/24 09:05:28;;;;;;;19.40;13.80;;;;;;;;;;5051611;28;20658;-77
2021/12/24 09:07:56;;;;;;;17.50;11.07;;;;;;;;;;5052363;28;20693;-78
2021/12/24 09:10:23;;;;;;;20.40;12.10;;;;;;;;;;5051276;28;20238;-77
2021/12/24 09:12:50;;;;;;;15.03;11.00;;;;;;;;;;5051959;28;20226;-78
2021/12/24 09:15:19;;;;;;;20.27;12.43;;;;;;;;;;5051238;28;20233;-77
2021/12/24 09:17:47;;;;;;;11.93;7.77;;;;;;;;;;5052036;28;20228;-77
2021/12/24 09:20:16;;;;;;;13.43;7.70;;;;;;;;;;5051367;28;20320;-78
2021/12/24 09:22:43;;;;;;;20.37;12.60;;;;;;;;;;5051608;28;20291;-77
2021/12/24 09:25:10;;;;;;;13.73;9.17;;;;;;;;;;5050935;28;20242;-78
2021/12/24 09:27:37;;;;;;;16.53;11.00;;;;;;;;;;5051336;28;20225;-80
2021/12/24 09:30:05;;;;;;;18.83;12.33;;;;;;;;;;5050676;28;20230;-78
2021/12/24 09:32:33;;;;;;;17.40;11.70;;;;;;;;;;5050668;28;20226;-78
2021/12/24 09:35:01;;;;;;;15.63;10.93;;;;;;;;;;5050514;28;20660;-78
2021/12/24 09:37:28;;;;;;;16.87;11.17;;;;;;;;;;5050996;28;20202;-77
2021/12/24 09:39:55;;;;;;;19.93;9.20;;;;;;;;;;5051110;28;20233;-77
2021/12/24 09:42:24;;;;;;;14.73;8.13;;;;;;;;;;5051613;28;20241;-78
2021/12/24 09:44:51;;;;;;;17.30;10.47;;;;;;;;;;5050373;28;20238;-78
2021/12/24 09:47:18;;;;;;;12.70;8.60;;;;;;;;;;5051595;28;20214;-78
2021/12/24 09:49:47;;;;;;;14.57;9.70;;;;;;;;;;5050443;28;20234;-77
2021/12/24 09:52:14;;;;;;;18.33;11.10;;;;;;;;;;5051089;28;20217;-77
2021/12/24 09:54:43;;;;;;;18.17;11.77;;;;;;;;;;5050763;28;20243;-76
2021/12/24 09:57:10;;;;;;;14.10;10.20;;;;;;;;;;5050635;28;20802;-77
2021/12/24 09:59:37;;;;;;;15.60;10.40;;;;;;;;;;5050806;28;20236;-77
2021/12/24 10:02:07;;;;;;;15.63;10.40;;;;;;;;;;5050454;28;20257;-77
2021/12/24 10:04:35;;;;;;;13.40;8.23;;;;;;;;;;5050680;28;20869;-78
2021/12/24 10:07:05;;;;;;;18.00;10.43;;;;;;;;;;5050867;28;20567;-78
2021/12/24 10:09:33;;;;;;;10.67;7.53;;;;;;;;;;5054201;28;20267;-79
2021/12/24 10:12:01;;;;;;;18.23;10.73;;;;;;;;;;5054641;28;20218;-78
2021/12/24 10:14:31;;;;;;;17.77;10.17;;;;;;;;;;5054467;28;20245;-78
2021/12/24 10:16:58;;;;;;;17.97;10.27;;;;;;;;;;5055263;28;20192;-78
2021/12/24 10:19:25;;;;;;;14.50;9.73;;;;;;;;;;5054477;28;20242;-78
2021/12/24 10:21:57;;;;;;;14.30;9.80;;;;;;;;;;5054618;28;20615;-78
2021/12/24 10:24:27;;;;;;;10.87;8.20;;;;;;;;;;5054299;28;20317;-79
2021/12/24 10:26:55;;;;;;;13.30;10.67;;;;;;;;;;5054660;28;20697;-78
2021/12/24 10:29:29;;;;;;;13.57;8.80;;;;;;;;;;5053892;28;20258;-79
2021/12/24 10:31:57;;;;;;;11.47;8.70;;;;;;;;;;5054283;28;20214;-79
2021/12/24 10:34:25;;;;;;;12.90;9.97;;;;;;;;;;5053818;28;20234;-79
2021/12/24 10:37:03;;;;;;;13.80;8.93;;;;;;;;;;5054182;28;20657;-78
2021/12/24 10:39:34;;;;;;;14.00;9.00;;;;;;;;;;5053974;28;20295;-78
2021/12/24 10:42:02;;;;;;;11.23;6.67;;;;;;;;;;5054415;28;20226;-78
2021/12/24 10:44:29;;;;;;;16.97;9.47;;;;;;;;;;5054093;28;20233;-78
2021/12/24 10:47:02;;;;;;;13.90;9.23;;;;;;;;;;5049255;28;20634;-78
2021/12/24 10:52:27;;;;;;;10.33;7.40;;;;;;;;;;5053318;28;20220;-77
2021/12/24 10:54:57;;;;;;;12.93;8.03;;;;;;;;;;5053051;28;20258;-79
2021/12/24 10:57:26;;;;;;;12.60;8.17;;;;;;;;;;5053341;28;20198;-79
2021/12/24 10:59:54;;;;;;;13.90;9.40;;;;;;;;;;5053241;28;20693;-79
2021/12/24 11:02:23;;;;;;;11.70;8.13;;;;;;;;;;5053717;28;20292;-79
2021/12/24 11:04:53;;;;;;;15.13;8.57;;;;;;;;;;5053146;28;20791;-79
2021/12/24 11:07:33;;;;;;;13.20;9.27;;;;;;;;;;5053159;28;20226;-79
2021/12/24 11:10:15;;;;;;;12.70;9.47;;;;;;;;;;5052540;28;20272;-79
2021/12/24 11:12:43;;;;;;;11.97;8.10;;;;;;;;;;5053202;28;20222;-79
2021/12/24 11:15:19;;;;;;;12.87;8.07;;;;;;;;;;5052623;28;20245;-78
2021/12/24 11:17:46;;;;;;;14.83;9.20;;;;;;;;;;5053512;28;20635;-78
2021/12/24 11:20:13;;;;;;;11.03;8.27;;;;;;;;;;5053009;28;20586;-77
2021/12/24 11:22:50;;;;;;;17.33;10.67;;;;;;;;;;5052920;28;20234;-78
2021/12/24 11:25:20;;;;;;;13.77;10.17;;;;;;;;;;5053196;28;20241;-79
2021/12/24 11:27:47;;;;;;;13.30;9.73;;;;;;;;;;5053868;28;20222;-79
2021/12/24 11:30:15;;;;;;;16.70;10.53;;;;;;;;;;5053653;28;20230;-78
2021/12/24 11:32:42;;;;;;;15.63;10.67;;;;;;;;;;5054234;28;20257;-79
2021/12/24 11:35:11;;;;;;;15.40;10.27;;;;;;;;;;5053256;28;20260;-79
2021/12/24 11:37:38;;;;;;;18.03;10.63;;;;;;;;;;5054175;28;20206;-79
2021/12/24 11:40:06;;;;;;;14.17;10.13;;;;;;;;;;5053410;28;20237;-78
2021/12/24 11:42:39;;;;;;;15.27;10.47;;;;;;;;;;5054634;28;20237;-81
2021/12/24 11:45:06;;;;;;;15.03;10.20;;;;;;;;;;5053525;28;20234;-78
2021/12/24 11:47:33;;;;;;;12.07;9.20;;;;;;;;;;5053764;28;20280;-78
2021/12/24 11:50:02;;;;;;;15.43;9.53;;;;;;;;;;5052776;28;20242;-78
2021/12/24 11:52:29;;;;;;;13.53;7.90;;;;;;;;;;5053190;28;20728;-78
2021/12/24 11:54:57;;;;;;;13.93;9.60;;;;;;;;;;5052630;28;20238;-78
2021/12/24 11:57:24;;;;;;;9.37;7.30;;;;;;;;;;5053466;28;20545;-78
2021/12/24 11:59:53;;;;;;;12.00;8.13;;;;;;;;;;5053416;28;20367;-78
2021/12/24 12:02:36;;;;;;;13.97;8.93;;;;;;;;;;5053401;28;20303;-78
2021/12/24 12:05:19;;;;;;;12.47;9.03;;;;;;;;;;5040045;28;20706;-79
2021/12/24 12:07:46;;;;;;;13.40;7.20;;;;;;;;;;5051627;28;20210;-78
2021/12/24 12:10:14;;;;;;;11.77;8.67;;;;;;;;;;5052436;28;20241;-78
2021/12/24 12:12:42;;;;;;;8.10;5.80;;;;;;;;;;5053246;28;20229;-78
2021/12/24 12:15:27;;;;;;;11.17;7.70;;;;;;;;;;5052443;28;20237;-78
2021/12/24 12:17:58;;;;;;;12.70;8.77;;;;;;;;;;5053133;28;20224;-78
2021/12/24 12:20:48;;;;;;;11.37;8.23;;;;;;;;;;5052596;28;20238;-79
2021/12/24 12:23:44;;;;;;;11.53;8.53;;;;;;;;;;5052410;28;20194;-78
2021/12/24 12:26:25;;;;;;;13.23;8.97;;;;;;;;;;5052738;28;20271;-77
2021/12/24 12:29:16;;;;;;;13.47;8.33;;;;;;;;;;5052148;28;20314;-78
2021/12/24 12:31:44;;;;;;;13.13;8.07;;;;;;;;;;5052099;28;20736;-78
2021/12/24 12:34:26;;;;;;;11.23;7.90;;;;;;;;;;5051819;28;20241;-78
2021/12/24 12:36:54;;;;;;;9.80;8.07;;;;;;;;;;5035264;28;20206;-78
2021/12/24 12:39:28;;;;;;;10.00;7.93;;;;;;;;;;5033337;28;20242;-78
2021/12/24 12:41:55;;;;;;;10.07;7.23;;;;;;;;;;5033830;28;20227;-77
2021/12/24 12:44:22;;;;;;;11.30;9.10;;;;;;;;;;5033008;28;20245;-77
2021/12/24 12:46:51;;;;;;;12.13;8.20;;;;;;;;;;5032321;28;20195;-77
2021/12/24 12:49:22;;;;;;;9.10;7.80;;;;;;;;;;5032010;28;20333;-78
2021/12/24 12:51:52;;;;;;;8.43;7.40;;;;;;;;;;5032476;28;20596;-77
2021/12/24 12:54:30;;;;;;;13.70;9.03;;;;;;;;;;5031874;28;20308;-77
2021/12/24 12:57:16;;;;;;;10.80;7.73;;;;;;;;;;5032841;28;20583;-77
2021/12/24 13:00:03;;;;;;;9.40;7.17;;;;;;;;;;5033802;28;20309;-77
2021/12/24 13:02:45;;;;;;;11.47;7.83;;;;;;;;;;5031425;28;20235;-78
2021/12/24 13:05:12;;;;;;;10.03;7.70;;;;;;;;;;5036056;28;20229;-78
2021/12/24 13:07:39;;;;;;;9.80;7.30;;;;;;;;;;5051528;28;20216;-78
2021/12/24 13:10:09;;;;;;;10.07;7.10;;;;;;;;;;5041880;28;20237;-79
2021/12/24 13:12:36;;;;;;;9.37;7.37;;;;;;;;;;5051507;28;20723;-78
2021/12/24 13:15:05;;;;;;;7.07;6.17;;;;;;;;;;5051591;28;20233;-78
2021/12/24 13:17:33;;;;;;;9.73;6.73;;;;;;;;;;5052268;28;20538;-78
2021/12/24 13:20:15;;;;;;;7.90;6.17;;;;;;;;;;5052886;28;20237;-79
2021/12/24 13:22:41;;;;;;;9.73;6.57;;;;;;;;;;5052253;28;20283;-78
2021/12/24 13:25:14;;;;;;;10.40;6.70;;;;;;;;;;5052464;28;20230;-77
2021/12/24 13:27:44;;;;;;;8.13;6.73;;;;;;;;;;5053751;28;20209;-77
2021/12/24 13:30:13;;;;;;;9.23;6.77;;;;;;;;;;5053874;28;20237;-78
2021/12/24 13:32:40;;;;;;;8.80;6.77;;;;;;;;;;5052236;28;20229;-78
2021/12/24 13:35:08;;;;;;;12.97;7.27;;;;;;;;;;5051172;28;20302;-78
2021/12/24 13:37:35;;;;;;;10.70;7.20;;;;;;;;;;5051888;28;20212;-80
2021/12/24 13:40:03;;;;;;;8.63;6.53;;;;;;;;;;5051256;28;20240;-78
2021/12/24 13:42:41;;;;;;;10.00;6.37;;;;;;;;;;5052515;28;20248;-79
2021/12/24 13:45:08;;;;;;;9.87;6.47;;;;;;;;;;5055139;28;20241;-78
2021/12/24 13:47:51;;;;;;;10.23;6.50;;;;;;;;;;5055846;28;20660;-77
2021/12/24 13:54:31;;;;;;;9.37;6.87;;;;;;;;;;5055517;28;20602;-77
2021/12/24 13:56:07;;;;;;;7.30;5.90;;;;;;;;;;5055246;28;20204;-77
2021/12/24 13:58:35;;;;;;;7.80;5.33;;;;;;;;;;5055057;28;20291;-77
2021/12/24 14:01:03;;;;;;;7.13;5.97;;;;;;;;;;5055541;28;20214;-77
2021/12/24 14:03:31;;;;;;;7.57;6.00;;;;;;;;;;5054875;28;20241;-76
2021/12/24 14:06:00;;;;;;;6.83;5.30;;;;;;;;;;5055126;28;20209;-76
2021/12/24 14:08:28;;;;;;;5.63;5.10;;;;;;;;;;5052870;28;20233;-76
2021/12/24 14:11:03;;;;;;;8.03;5.60;;;;;;;;;;5055017;28;20186;-77
2021/12/24 14:13:34;;;;;;;7.60;5.50;;;;;;;;;;5054610;28;20233;-77
2021/12/24 14:16:11;;;;;;;8.80;6.40;;;;;;;;;;5054838;28;20217;-77
2021/12/24 14:18:45;;;;;;;6.57;5.97;;;;;;;;;;5054075;28;20232;-77
2021/12/24 14:24:06;;;;;;;6.53;5.03;;;;;;;;;;4988754;28;20282;-82
2021/12/24 14:26:34;;;;;;;5.40;4.57;;;;;;;;;;4996657;28;20572;-83
2021/12/24 14:29:05;;;;;;;6.93;5.33;;;;;;;;;;4996173;28;20260;-82
2021/12/24 14:31:47;;;;;;;4.83;4.33;;;;;;;;;;4996438;28;20236;-82
2021/12/24 14:34:14;;;;;;;5.80;4.90;;;;;;;;;;4996150;28;20235;-82
2021/12/24 14:36:56;;;;;;;4.27;3.87;;;;;;;;;;4997293;28;20211;-82
2021/12/24 14:39:23;;;;;;;5.33;4.47;;;;;;;;;;5002760;28;20236;-82
2021/12/24 14:42:08;;;;;;;10.33;6.90;;;;;;;;;;5000781;28;20235;-82
2021/12/24 14:44:35;;;;;;;4.77;4.13;;;;;;;;;;5007261;28;20244;-82
2021/12/24 14:47:04;;;;;;;7.70;5.67;;;;;;;;;;5002646;28;20406;-82
2021/12/24 14:49:32;;;;;;;7.93;5.70;;;;;;;;;;5002250;28;20251;-82
2021/12/24 14:52:14;;;;;;;7.07;5.13;;;;;;;;;;5002629;28;20262;-82
2021/12/24 14:54:56;;;;;;;7.20;6.07;;;;;;;;;;5001408;28;20236;-82
2021/12/24 14:57:24;;;;;;;5.80;4.77;;;;;;;;;;5001918;28;20239;-82
2021/12/24 14:59:51;;;;;;;7.30;5.73;;;;;;;;;;5002738;28;20240;-84
2021/12/24 15:02:19;;;;;;;7.37;6.00;;;;;;;;;;5006751;28;20295;-82
2021/12/24 15:04:55;;;;;;;8.27;6.30;;;;;;;;;;5001919;28;20239;-82
2021/12/24 15:07:30;;;;;;;7.07;5.80;;;;;;;;;;5002987;28;20208;-82
2021/12/24 15:10:08;;;;;;;8.57;6.33;;;;;;;;;;5001976;28;20234;-82
2021/12/24 15:12:41;;;;;;;7.20;6.50;;;;;;;;;;5002573;28;20231;-82
2021/12/24 15:15:08;;;;;;;7.13;5.30;;;;;;;;;;5003156;28;20236;-82
2021/12/24 15:17:41;;;;;;;7.10;5.17;;;;;;;;;;5003117;28;20216;-82
2021/12/24 15:20:08;;;;;;;8.37;6.07;;;;;;;;;;5002101;28;20290;-82
2021/12/24 15:22:35;;;;;;;7.77;5.40;;;;;;;;;;5001585;28;20236;-82
2021/12/24 15:25:02;;;;;;;6.87;5.60;;;;;;;;;;5001641;28;20231;-82
2021/12/24 15:27:35;;;;;;;7.23;5.20;;;;;;;;;;5002104;28;20212;-81
2021/12/24 15:30:04;;;;;;;6.93;5.83;;;;;;;;;;5001661;28;20268;-82
2021/12/24 15:32:31;;;;;;;5.07;4.53;;;;;;;;;;5001787;28;20263;-82
2021/12/24 15:35:00;;;;;;;6.17;4.90;;;;;;;;;;5001481;28;20243;-82
2021/12/24 15:37:27;;;;;;;5.53;4.90;;;;;;;;;;5001379;28;20238;-82
2021/12/24 15:39:54;;;;;;;5.30;4.80;;;;;;;;;;5001345;28;20246;-82
2021/12/24 15:42:24;;;;;;;6.93;4.57;;;;;;;;;;5002049;28;20294;-82
2021/12/24 15:44:51;;;;;;;6.13;5.10;;;;;;;;;;5003564;28;20240;-82
2021/12/24 15:47:18;;;;;;;6.73;5.30;;;;;;;;;;5003671;28;20208;-83
2021/12/24 15:49:45;;;;;;;9.80;5.90;;;;;;;;;;5001556;28;20232;-82
2021/12/24 15:52:14;;;;;;;7.40;5.47;;;;;;;;;;5001939;28;20623;-82
2021/12/24 15:54:41;;;;;;;5.60;5.03;;;;;;;;;;5001148;28;20231;-82
2021/12/24 15:57:08;;;;;;;6.83;5.17;;;;;;;;;;5002163;28;20204;-82
2021/12/24 15:59:36;;;;;;;5.60;5.00;;;;;;;;;;5001110;28;20232;-82
2021/12/24 16:02:04;;;;;;;5.53;5.03;;;;;;;;;;5001258;28;20232;-82